createdAt,value
2023-04-14T00:01:41.474Z,15.48
2023-04-14T00:06:43.706Z,11.88
2023-04-14T00:11:45.750Z,10.82
2023-04-14T00:16:48.110Z,10.48
2023-04-14T00:21:50.847Z,14.55
2023-04-14T00:26:53.082Z,15.98
2023-04-14T00:31:56.434Z,12.25
2023-04-14T00:36:58.676Z,7.95
2023-04-14T00:42:02.140Z,13.43
2023-04-14T00:47:05.500Z,12.35
2023-04-14T00:52:07.999Z,17.33
2023-04-14T00:57:10.355Z,16.70
2023-04-14T01:02:12.866Z,13.60
2023-04-14T01:07:15.254Z,14.07
2023-04-14T01:12:52.930Z,12.63
2023-04-14T01:18:20.321Z,14.77
2023-04-14T01:23:29.199Z,13.50
2023-04-14T01:28:34.021Z,10.60
2023-04-14T01:33:40.385Z,12.70
2023-04-14T01:38:45.313Z,11.75
2023-04-14T01:43:53.893Z,16.40
2023-04-14T01:48:56.283Z,12.75
2023-04-14T01:53:59.319Z,16.83
2023-04-14T01:59:03.828Z,13.60
2023-04-14T02:04:08.397Z,11.98
2023-04-14T02:09:12.901Z,16.88
2023-04-14T02:14:16.433Z,13.95
2023-04-14T02:19:20.049Z,15.23
2023-04-14T02:24:23.611Z,14.18
2023-04-14T02:29:27.539Z,12.52
2023-04-14T02:34:37.462Z,13.70
2023-04-14T02:39:44.201Z,15.60
2023-04-14T02:44:51.972Z,13.68
2023-04-14T02:49:56.908Z,11.57
2023-04-14T02:55:01.234Z,14.82
2023-04-14T03:00:06.185Z,14.38
2023-04-14T03:05:14.385Z,13.98
2023-04-14T03:10:33.722Z,13.02
2023-04-14T03:15:38.029Z,13.05
2023-04-14T03:20:43.353Z,16.00
2023-04-14T03:25:47.082Z,10.13
2023-04-14T03:30:55.299Z,11.60
2023-04-14T03:36:01.738Z,16.23
2023-04-14T03:41:07.370Z,12.90
2023-04-14T03:46:11.121Z,13.10
2023-04-14T03:51:15.768Z,14.52
2023-04-14T03:56:19.614Z,11.55
2023-04-14T04:01:25.771Z,13.68
2023-04-14T04:06:28.413Z,14.27
2023-04-14T04:11:33.112Z,12.32
2023-04-14T04:16:37.607Z,13.77
2023-04-14T04:21:41.820Z,11.23
2023-04-14T04:26:44.259Z,13.32
2023-04-14T04:31:46.873Z,16.35
2023-04-14T04:36:49.783Z,9.30
2023-04-14T04:42:01.471Z,14.85
2023-04-14T04:47:04.251Z,16.60
2023-04-14T04:52:06.809Z,9.90
2023-04-14T04:57:10.448Z,11.73
2023-04-14T05:02:13.378Z,16.67
2023-04-14T05:07:15.809Z,17.13
2023-04-14T05:12:17.783Z,11.32
2023-04-14T05:17:19.822Z,13.00
2023-04-14T05:22:21.850Z,14.18
2023-04-14T05:27:23.859Z,14.07
2023-04-14T05:32:28.978Z,15.13
2023-04-14T05:37:31.498Z,13.65
2023-04-14T05:42:33.616Z,17.60
2023-04-14T05:47:35.991Z,17.65
2023-04-14T05:52:38.024Z,17.23
2023-04-14T05:57:40.237Z,18.27
2023-04-14T06:02:42.920Z,16.48
2023-04-14T06:07:46.136Z,18.10
2023-04-14T06:12:48.319Z,19.73
2023-04-14T06:17:50.370Z,16.35
2023-04-14T06:22:52.816Z,16.27
2023-04-14T06:27:54.865Z,21.10
2023-04-14T06:32:56.897Z,17.23
2023-04-14T06:37:59.578Z,17.95
2023-04-14T06:43:01.790Z,15.10
2023-04-14T06:48:04.365Z,16.50
2023-04-14T06:53:07.171Z,12.43
2023-04-14T06:58:09.361Z,15.57
2023-04-14T07:03:11.596Z,13.85
2023-04-14T07:08:13.801Z,19.55
2023-04-14T07:13:16.099Z,13.90
2023-04-14T07:18:18.239Z,15.45
2023-04-14T07:23:21.418Z,13.88
2023-04-14T07:28:24.821Z,12.25
2023-04-14T07:33:31.001Z,12.68
2023-04-14T07:38:33.411Z,11.02
2023-04-14T07:43:36.029Z,12.10
2023-04-14T07:48:38.636Z,8.80
2023-04-14T07:53:44.941Z,7.95
2023-04-14T07:58:47.142Z,13.00
2023-04-14T08:03:49.699Z,7.30
2023-04-14T08:08:52.176Z,6.63
2023-04-14T08:13:54.362Z,10.35
2023-04-14T08:18:58.228Z,9.20
2023-04-14T08:24:00.960Z,7.95
2023-04-14T08:29:03.581Z,10.77
2023-04-14T08:34:06.166Z,8.27
2023-04-14T08:39:08.266Z,11.50
2023-04-14T08:44:10.367Z,8.05
2023-04-14T08:49:24.548Z,5.38
2023-04-14T08:54:27.254Z,6.20
2023-04-14T08:59:29.521Z,8.50
2023-04-14T09:04:33.370Z,7.78
2023-04-14T09:09:35.519Z,8.43
2023-04-14T09:14:37.923Z,10.90
2023-04-14T09:20:37.652Z,9.90
2023-04-14T09:25:03.341Z,4.95
2023-04-14T09:30:06.416Z,12.48
2023-04-14T09:35:13.122Z,6.10
2023-04-14T09:40:31.531Z,5.65
2023-04-14T09:45:44.831Z,5.90
2023-04-14T09:51:07.090Z,6.47
2023-04-14T09:56:10.990Z,8.85
2023-04-14T10:01:18.221Z,8.93
2023-04-14T10:06:22.270Z,5.80
2023-04-14T10:11:35.300Z,7.90
2023-04-14T10:16:37.694Z,7.55
2023-04-14T10:21:39.862Z,8.55
2023-04-14T10:26:42.787Z,6.07
2023-04-14T10:31:59.782Z,5.15
2023-04-14T10:37:15.676Z,6.28
2023-04-14T10:42:17.709Z,5.70
2023-04-14T10:47:25.091Z,5.25
2023-04-14T10:52:27.467Z,7.07
2023-04-14T10:57:30.174Z,5.82
2023-04-14T11:02:33.899Z,8.40
2023-04-14T11:07:46.212Z,6.13
2023-04-14T11:12:54.877Z,4.57
2023-04-14T11:18:11.303Z,6.88
2023-04-14T11:23:14.498Z,7.40
2023-04-14T11:28:16.452Z,4.10
2023-04-14T11:33:19.157Z,7.28
2023-04-14T11:38:21.569Z,7.82
2023-04-14T11:43:24.663Z,5.22
2023-04-14T11:48:29.626Z,10.45
2023-04-14T11:53:33.723Z,4.72
2023-04-14T11:58:35.905Z,4.10
2023-04-14T12:03:39.562Z,6.38
2023-04-14T12:08:41.903Z,5.80
2023-04-14T12:13:46.046Z,5.68
2023-04-14T12:18:48.303Z,7.93
2023-04-14T12:23:50.845Z,5.30
2023-04-14T12:28:57.847Z,6.25
2023-04-14T12:34:01.998Z,8.88
2023-04-14T12:39:06.420Z,5.25
2023-04-14T12:44:15.023Z,6.40
2023-04-14T12:49:37.946Z,4.93
2023-04-14T12:54:52.558Z,7.13
2023-04-14T12:59:54.806Z,7.15
2023-04-14T13:04:57.330Z,6.00
2023-04-14T13:09:59.448Z,4.65
2023-04-14T13:15:01.544Z,5.13
2023-04-14T13:20:03.641Z,6.32
2023-04-14T13:25:06.559Z,8.95
2023-04-14T13:30:09.209Z,7.45
2023-04-14T13:35:11.745Z,8.63
2023-04-14T13:40:13.864Z,5.50
2023-04-14T13:45:16.070Z,6.18
2023-04-14T13:50:20.047Z,5.10
2023-04-14T13:55:22.119Z,6.40
2023-04-14T14:00:24.283Z,5.78
2023-04-14T14:05:27.254Z,8.27
2023-04-14T14:10:41.820Z,4.50
2023-04-14T14:15:43.878Z,4.43
2023-04-14T14:20:47.340Z,7.07
2023-04-14T14:25:49.408Z,6.03
2023-04-14T14:30:51.430Z,5.13
2023-04-14T14:35:53.734Z,6.03
2023-04-14T14:40:55.920Z,4.97
2023-04-14T14:46:08.591Z,4.57
2023-04-14T14:51:12.503Z,6.82
2023-04-14T14:56:14.816Z,7.05
2023-04-14T15:01:16.912Z,6.15
2023-04-14T15:06:19.128Z,7.78
2023-04-14T15:11:21.571Z,4.40
2023-04-14T15:16:24.229Z,3.90
2023-04-14T15:21:26.303Z,5.13
2023-04-14T15:26:28.433Z,5.15
2023-04-14T15:31:30.934Z,4.97
2023-04-14T15:36:33.132Z,5.53
2023-04-14T15:41:36.273Z,4.68
2023-04-14T15:46:38.395Z,4.45
2023-04-14T15:51:40.627Z,7.13
2023-04-14T15:56:42.847Z,5.72
2023-04-14T16:01:45.164Z,6.78
2023-04-14T16:06:47.902Z,8.52
2023-04-14T16:11:50.695Z,3.33
2023-04-14T16:16:53.191Z,5.57
2023-04-14T16:21:56.773Z,10.25
2023-04-14T16:26:59.102Z,11.60
2023-04-14T16:32:01.535Z,13.48
2023-04-14T16:37:03.756Z,13.80
2023-04-14T16:42:05.889Z,7.10
2023-04-14T16:47:07.926Z,5.57
2023-04-14T16:52:10.001Z,7.85
2023-04-14T16:57:12.101Z,6.80
2023-04-14T17:02:14.463Z,5.50
2023-04-14T17:07:16.635Z,4.60
2023-04-14T17:12:18.664Z,5.38
2023-04-14T17:17:20.899Z,7.75
2023-04-14T17:22:22.941Z,4.70
2023-04-14T17:27:25.024Z,4.40
2023-04-14T17:32:27.750Z,4.25
2023-04-14T17:37:31.182Z,5.93
2023-04-14T17:42:34.234Z,8.60
2023-04-14T17:47:38.263Z,4.55
2023-04-14T17:52:40.452Z,8.10
2023-04-14T17:57:43.144Z,5.07
2023-04-14T18:02:45.390Z,6.57
2023-04-14T18:07:47.601Z,8.27
2023-04-14T18:12:49.605Z,7.95
2023-04-14T18:17:51.921Z,8.30
2023-04-14T18:23:01.955Z,5.00
2023-04-14T18:28:04.232Z,9.18
2023-04-14T18:33:06.411Z,8.75
2023-04-14T18:38:08.727Z,6.40
2023-04-14T18:43:10.836Z,5.18
2023-04-14T18:48:14.193Z,5.95
2023-04-14T18:53:16.389Z,6.18
2023-04-14T18:58:18.830Z,7.43
2023-04-14T19:03:21.859Z,6.00
2023-04-14T19:08:24.367Z,4.53
2023-04-14T19:13:28.676Z,3.85
2023-04-14T19:18:30.689Z,9.88
2023-04-14T19:23:32.730Z,5.88
2023-04-14T19:28:34.928Z,8.75
2023-04-14T19:33:37.951Z,8.30
2023-04-14T19:38:40.545Z,11.48
2023-04-14T19:43:42.566Z,11.95
2023-04-14T19:48:45.255Z,10.85
2023-04-14T19:53:48.170Z,10.65
2023-04-14T19:58:51.695Z,9.40
2023-04-14T20:04:06.507Z,12.23
2023-04-14T20:09:14.386Z,15.45
2023-04-14T20:14:16.488Z,14.63
2023-04-14T20:19:21.033Z,10.95
2023-04-14T20:24:25.340Z,11.52
2023-04-14T20:29:27.372Z,7.50
2023-04-14T20:34:29.403Z,11.55
2023-04-14T20:39:31.417Z,10.05
2023-04-14T20:44:33.521Z,15.10
2023-04-14T20:49:35.614Z,14.52
2023-04-14T20:54:37.865Z,12.18
2023-04-14T20:59:39.993Z,9.75
2023-04-14T21:04:42.322Z,8.10
2023-04-14T21:09:44.737Z,7.03
2023-04-14T21:15:45.068Z,8.65
2023-04-14T21:20:10.740Z,9.02
2023-04-14T21:25:12.775Z,9.65
2023-04-14T21:30:15.489Z,10.90
2023-04-14T21:35:17.621Z,11.35
2023-04-14T21:40:20.191Z,11.50
2023-04-14T21:45:22.587Z,13.23
2023-04-14T21:50:25.065Z,8.98
2023-04-14T21:55:27.357Z,10.48
2023-04-14T22:00:29.420Z,15.80
2023-04-14T22:05:31.445Z,11.00
2023-04-14T22:10:34.075Z,10.45
2023-04-14T22:15:36.173Z,13.18
2023-04-14T22:20:39.172Z,14.10
2023-04-14T22:25:41.340Z,13.15
2023-04-14T22:30:44.072Z,11.73
2023-04-14T22:35:46.475Z,12.57
2023-04-14T22:40:51.049Z,14.75
2023-04-14T22:45:54.722Z,12.25
2023-04-14T22:50:57.161Z,10.65
2023-04-14T22:55:59.244Z,13.77
2023-04-14T23:01:12.113Z,13.57
2023-04-14T23:06:22.919Z,16.15
2023-04-14T23:11:24.988Z,12.38
2023-04-14T23:16:27.459Z,11.25
2023-04-14T23:21:30.227Z,12.13
2023-04-14T23:26:32.272Z,9.40
2023-04-14T23:31:34.380Z,12.68
2023-04-14T23:36:37.594Z,11.82
2023-04-14T23:41:39.834Z,11.82
2023-04-14T23:46:42.213Z,13.85
2023-04-14T23:51:44.853Z,13.05
2023-04-14T23:56:47.329Z,14.57
